sensor_id;sensor_type;location;lat;lon;timestamp;P1;durP1;ratioP1;P2;durP2;ratioP2
4963;SDS011;2497;47.410;9.740;2023-04-24T00:01:48;1.87;;;1.20;;
4963;SDS011;2497;47.410;9.740;2023-04-24T00:04:15;1.67;;;1.40;;
4963;SDS011;2497;47.410;9.740;2023-04-24T00:06:43;2.60;;;1.30;;
4963;SDS011;2497;47.410;9.740;2023-04-24T00:09:14;2.60;;;1.60;;
4963;SDS011;2497;47.410;9.740;2023-04-24T00:11:43;1.70;;;1.20;;
4963;SDS011;2497;47.410;9.740;2023-04-24T00:14:10;2.70;;;1.40;;
4963;SDS011;2497;47.410;9.740;2023-04-24T00:16:37;2.43;;;1.43;;
4963;SDS011;2497;47.410;9.740;2023-04-24T00:19:04;8.27;;;1.67;;
4963;SDS011;2497;47.410;9.740;2023-04-24T00:21:32;1.53;;;1.17;;
4963;SDS011;2497;47.410;9.740;2023-04-24T00:23:59;1.80;;;1.30;;
4963;SDS011;2497;47.410;9.740;2023-04-24T00:26:27;5.80;;;1.73;;
4963;SDS011;2497;47.410;9.740;2023-04-24T00:28:56;2.43;;;1.40;;
4963;SDS011;2497;47.410;9.740;2023-04-24T00:31:23;2.37;;;1.40;;
4963;SDS011;2497;47.410;9.740;2023-04-24T00:33:50;2.30;;;1.40;;
4963;SDS011;2497;47.410;9.740;2023-04-24T00:36:17;5.30;;;1.53;;
4963;SDS011;2497;47.410;9.740;2023-04-24T00:38:45;8.63;;;1.63;;
4963;SDS011;2497;47.410;9.740;2023-04-24T00:41:12;1.80;;;1.30;;
4963;SDS011;2497;47.410;9.740;2023-04-24T00:43:40;2.10;;;1.47;;
4963;SDS011;2497;47.410;9.740;2023-04-24T00:46:08;6.13;;;1.83;;
4963;SDS011;2497;47.410;9.740;2023-04-24T00:48:36;3.40;;;2.00;;
4963;SDS011;2497;47.410;9.740;2023-04-24T00:51:05;3.37;;;1.90;;
4963;SDS011;2497;47.410;9.740;2023-04-24T00:53:32;2.67;;;2.00;;
4963;SDS011;2497;47.410;9.740;2023-04-24T00:55:59;3.80;;;1.90;;
4963;SDS011;2497;47.410;9.740;2023-04-24T00:58:27;2.40;;;2.07;;
4963;SDS011;2497;47.410;9.740;2023-04-24T01:00:55;4.00;;;2.13;;
4963;SDS011;2497;47.410;9.740;2023-04-24T01:03:25;3.13;;;1.80;;
4963;SDS011;2497;47.410;9.740;2023-04-24T01:05:56;2.30;;;1.67;;
4963;SDS011;2497;47.410;9.740;2023-04-24T01:08:24;4.03;;;1.70;;
4963;SDS011;2497;47.410;9.740;2023-04-24T01:10:52;14.00;;;1.90;;
4963;SDS011;2497;47.410;9.740;2023-04-24T01:13:19;2.87;;;1.57;;
4963;SDS011;2497;47.410;9.740;2023-04-24T01:15:47;2.60;;;1.77;;
4963;SDS011;2497;47.410;9.740;2023-04-24T01:18:15;3.90;;;2.07;;
4963;SDS011;2497;47.410;9.740;2023-04-24T01:20:43;5.00;;;2.13;;
4963;SDS011;2497;47.410;9.740;2023-04-24T01:23:13;4.10;;;1.70;;
4963;SDS011;2497;47.410;9.740;2023-04-24T01:25:41;3.57;;;2.30;;
4963;SDS011;2497;47.410;9.740;2023-04-24T01:28:08;2.50;;;1.50;;
4963;SDS011;2497;47.410;9.740;2023-04-24T01:30:37;4.67;;;2.37;;
4963;SDS011;2497;47.410;9.740;2023-04-24T01:33:04;8.53;;;3.00;;
4963;SDS011;2497;47.410;9.740;2023-04-24T01:35:33;2.97;;;2.37;;
4963;SDS011;2497;47.410;9.740;2023-04-24T01:38:01;2.80;;;2.00;;
4963;SDS011;2497;47.410;9.740;2023-04-24T01:40:29;4.90;;;2.80;;
4963;SDS011;2497;47.410;9.740;2023-04-24T01:42:57;4.60;;;2.57;;
4963;SDS011;2497;47.410;9.740;2023-04-24T01:45:24;2.50;;;2.20;;
4963;SDS011;2497;47.410;9.740;2023-04-24T01:47:51;3.63;;;2.47;;
4963;SDS011;2497;47.410;9.740;2023-04-24T01:50:19;3.93;;;2.43;;
4963;SDS011;2497;47.410;9.740;2023-04-24T01:52:46;4.30;;;2.10;;
4963;SDS011;2497;47.410;9.740;2023-04-24T01:55:13;2.40;;;1.63;;
4963;SDS011;2497;47.410;9.740;2023-04-24T01:57:41;2.90;;;1.70;;
4963;SDS011;2497;47.410;9.740;2023-04-24T02:00:09;2.70;;;2.00;;
4963;SDS011;2497;47.410;9.740;2023-04-24T02:02:38;3.13;;;1.87;;
4963;SDS011;2497;47.410;9.740;2023-04-24T02:05:08;1.90;;;1.50;;
4963;SDS011;2497;47.410;9.740;2023-04-24T02:07:36;3.20;;;2.03;;
4963;SDS011;2497;47.410;9.740;2023-04-24T02:10:03;4.10;;;1.70;;
4963;SDS011;2497;47.410;9.740;2023-04-24T02:12:31;2.37;;;1.70;;
4963;SDS011;2497;47.410;9.740;2023-04-24T02:15:00;2.30;;;1.60;;
4963;SDS011;2497;47.410;9.740;2023-04-24T02:17:27;2.60;;;1.40;;
4963;SDS011;2497;47.410;9.740;2023-04-24T02:19:54;1.77;;;1.50;;
4963;SDS011;2497;47.410;9.740;2023-04-24T02:22:21;2.10;;;1.67;;
4963;SDS011;2497;47.410;9.740;2023-04-24T02:24:48;2.70;;;1.47;;
4963;SDS011;2497;47.410;9.740;2023-04-24T02:27:15;3.90;;;1.53;;
4963;SDS011;2497;47.410;9.740;2023-04-24T02:29:42;2.60;;;1.50;;
4963;SDS011;2497;47.410;9.740;2023-04-24T02:32:11;1.77;;;1.30;;
4963;SDS011;2497;47.410;9.740;2023-04-24T02:34:40;2.13;;;1.30;;
4963;SDS011;2497;47.410;9.740;2023-04-24T02:37:07;1.70;;;1.27;;
4963;SDS011;2497;47.410;9.740;2023-04-24T02:39:35;3.87;;;1.47;;
4963;SDS011;2497;47.410;9.740;2023-04-24T02:42:02;1.87;;;1.67;;
4963;SDS011;2497;47.410;9.740;2023-04-24T02:44:29;1.90;;;1.50;;
4963;SDS011;2497;47.410;9.740;2023-04-24T02:46:56;3.03;;;1.87;;
4963;SDS011;2497;47.410;9.740;2023-04-24T02:49:25;2.60;;;1.93;;
4963;SDS011;2497;47.410;9.740;2023-04-24T02:51:52;2.50;;;1.63;;
4963;SDS011;2497;47.410;9.740;2023-04-24T02:54:19;3.80;;;1.77;;
4963;SDS011;2497;47.410;9.740;2023-04-24T02:56:46;2.27;;;1.33;;
4963;SDS011;2497;47.410;9.740;2023-04-24T02:59:13;3.87;;;1.43;;
4963;SDS011;2497;47.410;9.740;2023-04-24T03:01:40;2.67;;;2.03;;
4963;SDS011;2497;47.410;9.740;2023-04-24T03:04:07;4.43;;;2.00;;
4963;SDS011;2497;47.410;9.740;2023-04-24T03:06:36;2.17;;;1.60;;
4963;SDS011;2497;47.410;9.740;2023-04-24T03:09:03;6.63;;;3.93;;
4963;SDS011;2497;47.410;9.740;2023-04-24T03:11:30;3.80;;;2.83;;
4963;SDS011;2497;47.410;9.740;2023-04-24T03:13:57;5.77;;;2.57;;
4963;SDS011;2497;47.410;9.740;2023-04-24T03:16:25;4.10;;;2.07;;
4963;SDS011;2497;47.410;9.740;2023-04-24T03:18:52;3.40;;;1.97;;
4963;SDS011;2497;47.410;9.740;2023-04-24T03:21:19;3.43;;;2.30;;
4963;SDS011;2497;47.410;9.740;2023-04-24T03:23:47;3.60;;;2.40;;
4963;SDS011;2497;47.410;9.740;2023-04-24T03:26:14;2.87;;;1.90;;
4963;SDS011;2497;47.410;9.740;2023-04-24T03:28:41;3.90;;;2.27;;
4963;SDS011;2497;47.410;9.740;2023-04-24T03:31:08;2.50;;;1.40;;
4963;SDS011;2497;47.410;9.740;2023-04-24T03:33:35;2.63;;;1.60;;
4963;SDS011;2497;47.410;9.740;2023-04-24T03:36:03;4.13;;;1.60;;
4963;SDS011;2497;47.410;9.740;2023-04-24T03:38:30;2.13;;;1.60;;
4963;SDS011;2497;47.410;9.740;2023-04-24T03:40:59;3.00;;;1.70;;
4963;SDS011;2497;47.410;9.740;2023-04-24T03:43:27;1.90;;;1.57;;
4963;SDS011;2497;47.410;9.740;2023-04-24T03:45:54;4.03;;;1.73;;
4963;SDS011;2497;47.410;9.740;2023-04-24T03:48:21;2.30;;;1.63;;
4963;SDS011;2497;47.410;9.740;2023-04-24T03:50:48;3.03;;;1.60;;
4963;SDS011;2497;47.410;9.740;2023-04-24T03:53:15;4.93;;;1.63;;
4963;SDS011;2497;47.410;9.740;2023-04-24T03:55:44;2.80;;;2.13;;
4963;SDS011;2497;47.410;9.740;2023-04-24T03:58:13;3.33;;;1.83;;
4963;SDS011;2497;47.410;9.740;2023-04-24T04:00:40;3.10;;;2.00;;
4963;SDS011;2497;47.410;9.740;2023-04-24T04:03:09;2.70;;;1.77;;
4963;SDS011;2497;47.410;9.740;2023-04-24T04:05:41;2.73;;;1.90;;
4963;SDS011;2497;47.410;9.740;2023-04-24T04:08:08;2.23;;;1.80;;
4963;SDS011;2497;47.410;9.740;2023-04-24T04:10:38;5.27;;;1.60;;
4963;SDS011;2497;47.410;9.740;2023-04-24T04:13:05;4.43;;;2.07;;
4963;SDS011;2497;47.410;9.740;2023-04-24T04:15:34;3.37;;;1.67;;
4963;SDS011;2497;47.410;9.740;2023-04-24T04:18:01;4.63;;;1.73;;
4963;SDS011;2497;47.410;9.740;2023-04-24T04:20:28;5.53;;;2.40;;
4963;SDS011;2497;47.410;9.740;2023-04-24T04:22:57;4.97;;;2.03;;
4963;SDS011;2497;47.410;9.740;2023-04-24T04:25:27;4.17;;;2.10;;
4963;SDS011;2497;47.410;9.740;2023-04-24T04:27:54;2.43;;;1.80;;
4963;SDS011;2497;47.410;9.740;2023-04-24T04:30:23;3.87;;;2.43;;
4963;SDS011;2497;47.410;9.740;2023-04-24T04:32:54;4.10;;;2.73;;
4963;SDS011;2497;47.410;9.740;2023-04-24T04:35:22;4.57;;;2.63;;
4963;SDS011;2497;47.410;9.740;2023-04-24T04:37:50;3.80;;;2.80;;
4963;SDS011;2497;47.410;9.740;2023-04-24T04:40:17;4.97;;;2.40;;
4963;SDS011;2497;47.410;9.740;2023-04-24T04:42:48;10.23;;;1.90;;
4963;SDS011;2497;47.410;9.740;2023-04-24T04:45:18;8.60;;;1.93;;
4963;SDS011;2497;47.410;9.740;2023-04-24T04:47:45;3.50;;;2.00;;
4963;SDS011;2497;47.410;9.740;2023-04-24T04:50:15;3.50;;;1.97;;
4963;SDS011;2497;47.410;9.740;2023-04-24T04:52:44;2.17;;;1.70;;
4963;SDS011;2497;47.410;9.740;2023-04-24T04:55:11;4.40;;;2.10;;
4963;SDS011;2497;47.410;9.740;2023-04-24T04:57:39;5.70;;;1.87;;
4963;SDS011;2497;47.410;9.740;2023-04-24T05:00:12;4.07;;;2.37;;
4963;SDS011;2497;47.410;9.740;2023-04-24T05:02:40;2.90;;;2.43;;
4963;SDS011;2497;47.410;9.740;2023-04-24T05:05:12;3.93;;;2.50;;
4963;SDS011;2497;47.410;9.740;2023-04-24T05:07:45;7.70;;;3.00;;
4963;SDS011;2497;47.410;9.740;2023-04-24T05:10:17;5.13;;;3.37;;
4963;SDS011;2497;47.410;9.740;2023-04-24T05:13:01;4.00;;;2.80;;
4963;SDS011;2497;47.410;9.740;2023-04-24T05:15:34;3.63;;;2.37;;
4963;SDS011;2497;47.410;9.740;2023-04-24T05:18:04;1.30;;;1.20;;
4963;SDS011;2497;47.410;9.740;2023-04-24T05:20:33;2.33;;;1.30;;
4963;SDS011;2497;47.410;9.740;2023-04-24T05:23:00;2.37;;;1.60;;
4963;SDS011;2497;47.410;9.740;2023-04-24T05:25:28;2.00;;;1.40;;
4963;SDS011;2497;47.410;9.740;2023-04-24T05:27:57;1.83;;;1.30;;
4963;SDS011;2497;47.410;9.740;2023-04-24T05:30:24;2.23;;;1.10;;
4963;SDS011;2497;47.410;9.740;2023-04-24T05:35:27;2.67;;;1.80;;
4963;SDS011;2497;47.410;9.740;2023-04-24T05:40:54;4.87;;;3.67;;
4963;SDS011;2497;47.410;9.740;2023-04-24T05:43:22;7.23;;;3.47;;
4963;SDS011;2497;47.410;9.740;2023-04-24T05:45:49;6.67;;;4.30;;
4963;SDS011;2497;47.410;9.740;2023-04-24T05:48:18;5.40;;;2.87;;
4963;SDS011;2497;47.410;9.740;2023-04-24T05:50:50;4.47;;;2.90;;
4963;SDS011;2497;47.410;9.740;2023-04-24T05:53:19;3.77;;;2.27;;
4963;SDS011;2497;47.410;9.740;2023-04-24T05:55:47;3.73;;;2.37;;
4963;SDS011;2497;47.410;9.740;2023-04-24T05:58:16;3.73;;;2.03;;
4963;SDS011;2497;47.410;9.740;2023-04-24T06:00:56;3.87;;;1.50;;
4963;SDS011;2497;47.410;9.740;2023-04-24T06:03:23;5.93;;;1.97;;
4963;SDS011;2497;47.410;9.740;2023-04-24T06:05:51;4.20;;;2.40;;
4963;SDS011;2497;47.410;9.740;2023-04-24T06:14:26;4.73;;;1.93;;
4963;SDS011;2497;47.410;9.740;2023-04-24T06:16:55;2.67;;;1.80;;
4963;SDS011;2497;47.410;9.740;2023-04-24T06:19:22;6.07;;;2.80;;
4963;SDS011;2497;47.410;9.740;2023-04-24T06:21:51;7.43;;;3.17;;
4963;SDS011;2497;47.410;9.740;2023-04-24T06:29:23;2.80;;;2.10;;
4963;SDS011;2497;47.410;9.740;2023-04-24T06:32:09;5.80;;;2.47;;
4963;SDS011;2497;47.410;9.740;2023-04-24T06:34:39;3.77;;;2.10;;
4963;SDS011;2497;47.410;9.740;2023-04-24T06:37:07;2.47;;;1.80;;
4963;SDS011;2497;47.410;9.740;2023-04-24T06:39:49;5.10;;;2.40;;
4963;SDS011;2497;47.410;9.740;2023-04-24T06:42:17;9.80;;;2.80;;
4963;SDS011;2497;47.410;9.740;2023-04-24T06:44:47;1.87;;;1.60;;
4963;SDS011;2497;47.410;9.740;2023-04-24T06:47:15;4.97;;;2.03;;
4963;SDS011;2497;47.410;9.740;2023-04-24T06:49:42;2.30;;;1.87;;
4963;SDS011;2497;47.410;9.740;2023-04-24T06:52:09;2.97;;;2.30;;
4963;SDS011;2497;47.410;9.740;2023-04-24T06:54:36;4.13;;;2.27;;
4963;SDS011;2497;47.410;9.740;2023-04-24T06:57:04;5.03;;;2.90;;
4963;SDS011;2497;47.410;9.740;2023-04-24T06:59:35;8.00;;;2.50;;
4963;SDS011;2497;47.410;9.740;2023-04-24T07:02:04;4.97;;;2.67;;
4963;SDS011;2497;47.410;9.740;2023-04-24T07:04:31;2.90;;;2.20;;
4963;SDS011;2497;47.410;9.740;2023-04-24T07:06:59;5.17;;;3.20;;
4963;SDS011;2497;47.410;9.740;2023-04-24T07:09:26;4.10;;;2.70;;
4963;SDS011;2497;47.410;9.740;2023-04-24T07:11:53;3.10;;;1.80;;
4963;SDS011;2497;47.410;9.740;2023-04-24T07:14:22;2.80;;;2.03;;
4963;SDS011;2497;47.410;9.740;2023-04-24T07:16:50;3.10;;;2.10;;
4963;SDS011;2497;47.410;9.740;2023-04-24T07:19:18;4.13;;;2.67;;
4963;SDS011;2497;47.410;9.740;2023-04-24T07:21:45;7.57;;;3.30;;
4963;SDS011;2497;47.410;9.740;2023-04-24T07:24:12;5.70;;;2.83;;
4963;SDS011;2497;47.410;9.740;2023-04-24T07:26:40;7.00;;;3.47;;
4963;SDS011;2497;47.410;9.740;2023-04-24T07:29:07;4.83;;;3.20;;
4963;SDS011;2497;47.410;9.740;2023-04-24T07:31:35;5.17;;;2.93;;
4963;SDS011;2497;47.410;9.740;2023-04-24T07:36:42;6.33;;;2.97;;
4963;SDS011;2497;47.410;9.740;2023-04-24T07:39:09;4.50;;;2.60;;
4963;SDS011;2497;47.410;9.740;2023-04-24T07:44:32;6.87;;;3.00;;
4963;SDS011;2497;47.410;9.740;2023-04-24T07:47:03;3.67;;;2.50;;
4963;SDS011;2497;47.410;9.740;2023-04-24T07:49:32;4.60;;;2.40;;
4963;SDS011;2497;47.410;9.740;2023-04-24T07:52:01;2.80;;;2.10;;
4963;SDS011;2497;47.410;9.740;2023-04-24T07:54:29;4.93;;;2.20;;
4963;SDS011;2497;47.410;9.740;2023-04-24T07:56:56;5.20;;;2.20;;
4963;SDS011;2497;47.410;9.740;2023-04-24T07:59:26;2.60;;;1.67;;
4963;SDS011;2497;47.410;9.740;2023-04-24T08:01:54;2.83;;;1.87;;
4963;SDS011;2497;47.410;9.740;2023-04-24T08:04:21;2.53;;;1.50;;
4963;SDS011;2497;47.410;9.740;2023-04-24T08:06:51;2.73;;;1.60;;
4963;SDS011;2497;47.410;9.740;2023-04-24T08:09:20;5.00;;;1.70;;
4963;SDS011;2497;47.410;9.740;2023-04-24T08:11:48;2.67;;;1.60;;
4963;SDS011;2497;47.410;9.740;2023-04-24T08:14:15;3.20;;;1.83;;
4963;SDS011;2497;47.410;9.740;2023-04-24T08:16:42;2.67;;;1.80;;
4963;SDS011;2497;47.410;9.740;2023-04-24T08:19:11;3.00;;;1.90;;
4963;SDS011;2497;47.410;9.740;2023-04-24T08:22:05;3.00;;;1.80;;
4963;SDS011;2497;47.410;9.740;2023-04-24T08:24:40;6.10;;;2.77;;
4963;SDS011;2497;47.410;9.740;2023-04-24T08:27:17;5.23;;;2.80;;
4963;SDS011;2497;47.410;9.740;2023-04-24T08:29:47;14.27;;;2.37;;
4963;SDS011;2497;47.410;9.740;2023-04-24T08:32:19;4.20;;;1.70;;
4963;SDS011;2497;47.410;9.740;2023-04-24T08:34:52;2.80;;;2.00;;
4963;SDS011;2497;47.410;9.740;2023-04-24T08:37:21;3.53;;;2.53;;
4963;SDS011;2497;47.410;9.740;2023-04-24T08:40:01;2.30;;;2.00;;
4963;SDS011;2497;47.410;9.740;2023-04-24T08:42:35;3.83;;;1.60;;
4963;SDS011;2497;47.410;9.740;2023-04-24T08:45:03;6.70;;;1.77;;
4963;SDS011;2497;47.410;9.740;2023-04-24T08:47:31;4.73;;;1.50;;
4963;SDS011;2497;47.410;9.740;2023-04-24T08:50:02;3.43;;;1.50;;
4963;SDS011;2497;47.410;9.740;2023-04-24T08:52:31;5.30;;;2.00;;
4963;SDS011;2497;47.410;9.740;2023-04-24T08:55:07;7.20;;;2.20;;
4963;SDS011;2497;47.410;9.740;2023-04-24T08:57:36;3.00;;;1.53;;
4963;SDS011;2497;47.410;9.740;2023-04-24T09:00:05;2.47;;;1.70;;
4963;SDS011;2497;47.410;9.740;2023-04-24T09:02:34;3.10;;;1.90;;
4963;SDS011;2497;47.410;9.740;2023-04-24T09:05:01;2.30;;;1.67;;
4963;SDS011;2497;47.410;9.740;2023-04-24T09:07:30;1.73;;;1.30;;
4963;SDS011;2497;47.410;9.740;2023-04-24T09:10:02;3.83;;;1.30;;
4963;SDS011;2497;47.410;9.740;2023-04-24T09:12:33;3.10;;;1.63;;
4963;SDS011;2497;47.410;9.740;2023-04-24T09:15:01;3.57;;;1.40;;
4963;SDS011;2497;47.410;9.740;2023-04-24T09:17:43;2.53;;;1.50;;
4963;SDS011;2497;47.410;9.740;2023-04-24T09:20:15;1.80;;;1.60;;
4963;SDS011;2497;47.410;9.740;2023-04-24T09:22:43;4.20;;;1.80;;
4963;SDS011;2497;47.410;9.740;2023-04-24T09:25:13;1.67;;;1.30;;
4963;SDS011;2497;47.410;9.740;2023-04-24T09:27:41;3.63;;;1.83;;
4963;SDS011;2497;47.410;9.740;2023-04-24T09:30:20;10.37;;;1.70;;
4963;SDS011;2497;47.410;9.740;2023-04-24T09:33:12;7.20;;;1.53;;
4963;SDS011;2497;47.410;9.740;2023-04-24T09:35:40;3.00;;;1.70;;
4963;SDS011;2497;47.410;9.740;2023-04-24T09:38:12;2.40;;;1.83;;
4963;SDS011;2497;47.410;9.740;2023-04-24T09:40:40;1.70;;;1.60;;
4963;SDS011;2497;47.410;9.740;2023-04-24T09:43:10;5.10;;;1.97;;
4963;SDS011;2497;47.410;9.740;2023-04-24T09:45:39;2.57;;;1.97;;
4963;SDS011;2497;47.410;9.740;2023-04-24T09:48:08;8.80;;;2.43;;
4963;SDS011;2497;47.410;9.740;2023-04-24T09:50:36;2.80;;;2.20;;
4963;SDS011;2497;47.410;9.740;2023-04-24T09:53:05;3.20;;;2.43;;
4963;SDS011;2497;47.410;9.740;2023-04-24T09:55:35;1.97;;;1.63;;
4963;SDS011;2497;47.410;9.740;2023-04-24T10:20:49;3.70;;;2.30;;
4963;SDS011;2497;47.410;9.740;2023-04-24T10:23:19;3.63;;;2.33;;
4963;SDS011;2497;47.410;9.740;2023-04-24T10:25:46;8.20;;;3.33;;
4963;SDS011;2497;47.410;9.740;2023-04-24T10:28:15;11.13;;;2.33;;
4963;SDS011;2497;47.410;9.740;2023-04-24T10:30:45;4.70;;;2.00;;
4963;SDS011;2497;47.410;9.740;2023-04-24T10:33:12;4.90;;;2.30;;
4963;SDS011;2497;47.410;9.740;2023-04-24T10:35:42;4.27;;;2.43;;
4963;SDS011;2497;47.410;9.740;2023-04-24T10:38:16;3.80;;;2.20;;
4963;SDS011;2497;47.410;9.740;2023-04-24T10:40:49;5.77;;;3.20;;
4963;SDS011;2497;47.410;9.740;2023-04-24T10:43:16;4.37;;;2.17;;
4963;SDS011;2497;47.410;9.740;2023-04-24T10:45:59;3.53;;;2.20;;
4963;SDS011;2497;47.410;9.740;2023-04-24T10:48:35;3.97;;;2.10;;
4963;SDS011;2497;47.410;9.740;2023-04-24T10:51:11;2.90;;;1.90;;
4963;SDS011;2497;47.410;9.740;2023-04-24T10:53:44;3.57;;;1.87;;
4963;SDS011;2497;47.410;9.740;2023-04-24T10:56:11;3.20;;;2.00;;
4963;SDS011;2497;47.410;9.740;2023-04-24T10:58:40;4.67;;;2.17;;
4963;SDS011;2497;47.410;9.740;2023-04-24T11:01:27;3.70;;;2.07;;
4963;SDS011;2497;47.410;9.740;2023-04-24T11:04:30;4.80;;;2.10;;
4963;SDS011;2497;47.410;9.740;2023-04-24T11:15:05;4.03;;;2.13;;
4963;SDS011;2497;47.410;9.740;2023-04-24T11:17:42;6.90;;;2.40;;
4963;SDS011;2497;47.410;9.740;2023-04-24T11:22:44;3.30;;;2.20;;
4963;SDS011;2497;47.410;9.740;2023-04-24T11:25:15;4.00;;;2.60;;
4963;SDS011;2497;47.410;9.740;2023-04-24T11:27:52;3.47;;;2.17;;
4963;SDS011;2497;47.410;9.740;2023-04-24T11:30:43;2.60;;;1.60;;
4963;SDS011;2497;47.410;9.740;2023-04-24T11:33:13;4.00;;;1.60;;
4963;SDS011;2497;47.410;9.740;2023-04-24T11:35:50;3.07;;;2.00;;
4963;SDS011;2497;47.410;9.740;2023-04-24T11:38:18;2.13;;;1.47;;
4963;SDS011;2497;47.410;9.740;2023-04-24T11:40:49;2.23;;;1.67;;
4963;SDS011;2497;47.410;9.740;2023-04-24T11:43:16;2.43;;;1.57;;
4963;SDS011;2497;47.410;9.740;2023-04-24T11:45:48;2.60;;;1.77;;
4963;SDS011;2497;47.410;9.740;2023-04-24T11:48:18;3.87;;;1.73;;
4963;SDS011;2497;47.410;9.740;2023-04-24T11:50:46;2.03;;;1.50;;
4963;SDS011;2497;47.410;9.740;2023-04-24T11:53:13;5.17;;;1.90;;
4963;SDS011;2497;47.410;9.740;2023-04-24T11:55:40;2.30;;;1.90;;
4963;SDS011;2497;47.410;9.740;2023-04-24T11:58:08;2.77;;;1.73;;
4963;SDS011;2497;47.410;9.740;2023-04-24T12:00:35;2.53;;;1.83;;
4963;SDS011;2497;47.410;9.740;2023-04-24T12:03:06;2.10;;;1.50;;
4963;SDS011;2497;47.410;9.740;2023-04-24T12:05:33;2.97;;;1.60;;
4963;SDS011;2497;47.410;9.740;2023-04-24T12:08:01;3.90;;;1.90;;
4963;SDS011;2497;47.410;9.740;2023-04-24T12:10:29;3.00;;;2.00;;
4963;SDS011;2497;47.410;9.740;2023-04-24T12:12:58;11.53;;;2.37;;
4963;SDS011;2497;47.410;9.740;2023-04-24T12:15:25;2.23;;;1.80;;
4963;SDS011;2497;47.410;9.740;2023-04-24T12:17:56;5.17;;;2.20;;
4963;SDS011;2497;47.410;9.740;2023-04-24T12:20:28;3.57;;;2.27;;
4963;SDS011;2497;47.410;9.740;2023-04-24T12:22:57;5.90;;;2.20;;
4963;SDS011;2497;47.410;9.740;2023-04-24T12:25:26;3.47;;;2.40;;
4963;SDS011;2497;47.410;9.740;2023-04-24T12:27:54;5.67;;;3.07;;
4963;SDS011;2497;47.410;9.740;2023-04-24T12:30:38;7.03;;;3.30;;
4963;SDS011;2497;47.410;9.740;2023-04-24T12:33:09;6.47;;;2.80;;
4963;SDS011;2497;47.410;9.740;2023-04-24T12:35:39;5.90;;;3.10;;
4963;SDS011;2497;47.410;9.740;2023-04-24T12:38:09;8.03;;;3.20;;
4963;SDS011;2497;47.410;9.740;2023-04-24T12:40:38;3.77;;;2.97;;
4963;SDS011;2497;47.410;9.740;2023-04-24T12:43:15;3.77;;;2.50;;
4963;SDS011;2497;47.410;9.740;2023-04-24T12:45:46;7.67;;;3.10;;
4963;SDS011;2497;47.410;9.740;2023-04-24T12:48:14;5.80;;;3.03;;
4963;SDS011;2497;47.410;9.740;2023-04-24T12:50:43;13.03;;;2.80;;
4963;SDS011;2497;47.410;9.740;2023-04-24T12:53:11;3.00;;;2.70;;
4963;SDS011;2497;47.410;9.740;2023-04-24T12:55:38;3.63;;;2.80;;
4963;SDS011;2497;47.410;9.740;2023-04-24T12:58:05;7.60;;;3.70;;
4963;SDS011;2497;47.410;9.740;2023-04-24T13:00:34;6.90;;;3.33;;
4963;SDS011;2497;47.410;9.740;2023-04-24T13:03:01;5.07;;;3.83;;
4963;SDS011;2497;47.410;9.740;2023-04-24T13:05:32;4.37;;;2.87;;
4963;SDS011;2497;47.410;9.740;2023-04-24T13:08:01;4.17;;;2.87;;
4963;SDS011;2497;47.410;9.740;2023-04-24T13:10:28;5.57;;;2.97;;
4963;SDS011;2497;47.410;9.740;2023-04-24T13:12:56;4.40;;;2.97;;
4963;SDS011;2497;47.410;9.740;2023-04-24T13:21:00;4.03;;;2.87;;
4963;SDS011;2497;47.410;9.740;2023-04-24T13:23:29;8.63;;;3.23;;
4963;SDS011;2497;47.410;9.740;2023-04-24T13:26:01;7.20;;;3.03;;
4963;SDS011;2497;47.410;9.740;2023-04-24T13:28:29;5.03;;;3.27;;
4963;SDS011;2497;47.410;9.740;2023-04-24T13:30:56;4.67;;;2.83;;
4963;SDS011;2497;47.410;9.740;2023-04-24T13:33:29;6.97;;;3.17;;
4963;SDS011;2497;47.410;9.740;2023-04-24T13:50:30;4.33;;;3.00;;
4963;SDS011;2497;47.410;9.740;2023-04-24T13:53:16;3.40;;;2.40;;
4963;SDS011;2497;47.410;9.740;2023-04-24T13:55:47;3.73;;;2.53;;
4963;SDS011;2497;47.410;9.740;2023-04-24T14:01:12;2.57;;;1.70;;
4963;SDS011;2497;47.410;9.740;2023-04-24T14:03:57;1.83;;;1.60;;
4963;SDS011;2497;47.410;9.740;2023-04-24T14:06:50;6.40;;;1.90;;
4963;SDS011;2497;47.410;9.740;2023-04-24T14:09:17;3.13;;;2.07;;
4963;SDS011;2497;47.410;9.740;2023-04-24T14:11:47;6.30;;;2.17;;
4963;SDS011;2497;47.410;9.740;2023-04-24T14:14:14;3.90;;;2.50;;
4963;SDS011;2497;47.410;9.740;2023-04-24T14:16:42;6.00;;;2.60;;
4963;SDS011;2497;47.410;9.740;2023-04-24T14:19:09;4.17;;;2.83;;
4963;SDS011;2497;47.410;9.740;2023-04-24T14:21:51;5.93;;;2.20;;
4963;SDS011;2497;47.410;9.740;2023-04-24T14:24:20;5.30;;;2.30;;
4963;SDS011;2497;47.410;9.740;2023-04-24T14:26:48;8.63;;;2.97;;
4963;SDS011;2497;47.410;9.740;2023-04-24T14:29:32;4.17;;;2.10;;
4963;SDS011;2497;47.410;9.740;2023-04-24T14:32:38;2.70;;;1.90;;
4963;SDS011;2497;47.410;9.740;2023-04-24T14:35:06;2.60;;;2.20;;
4963;SDS011;2497;47.410;9.740;2023-04-24T14:37:58;8.57;;;2.60;;
4963;SDS011;2497;47.410;9.740;2023-04-24T14:40:26;4.30;;;2.60;;
4963;SDS011;2497;47.410;9.740;2023-04-24T14:42:55;5.03;;;2.30;;
4963;SDS011;2497;47.410;9.740;2023-04-24T14:45:23;4.00;;;2.40;;
4963;SDS011;2497;47.410;9.740;2023-04-24T14:47:59;7.70;;;2.37;;
4963;SDS011;2497;47.410;9.740;2023-04-24T14:50:27;4.80;;;2.30;;
4963;SDS011;2497;47.410;9.740;2023-04-24T14:52:54;5.43;;;2.10;;
4963;SDS011;2497;47.410;9.740;2023-04-24T14:55:24;4.67;;;2.20;;
4963;SDS011;2497;47.410;9.740;2023-04-24T14:57:51;4.20;;;2.67;;
4963;SDS011;2497;47.410;9.740;2023-04-24T15:00:19;3.53;;;2.47;;
4963;SDS011;2497;47.410;9.740;2023-04-24T15:02:49;11.47;;;5.60;;
4963;SDS011;2497;47.410;9.740;2023-04-24T15:05:16;6.20;;;3.50;;
4963;SDS011;2497;47.410;9.740;2023-04-24T15:07:44;6.47;;;2.90;;
4963;SDS011;2497;47.410;9.740;2023-04-24T15:10:11;7.93;;;3.50;;
4963;SDS011;2497;47.410;9.740;2023-04-24T15:12:40;3.40;;;2.53;;
4963;SDS011;2497;47.410;9.740;2023-04-24T15:15:07;4.80;;;2.40;;
4963;SDS011;2497;47.410;9.740;2023-04-24T15:17:35;6.43;;;2.20;;
4963;SDS011;2497;47.410;9.740;2023-04-24T15:20:03;2.07;;;1.70;;
4963;SDS011;2497;47.410;9.740;2023-04-24T15:22:31;3.87;;;1.50;;
4963;SDS011;2497;47.410;9.740;2023-04-24T15:24:58;2.20;;;1.60;;
4963;SDS011;2497;47.410;9.740;2023-04-24T15:27:26;2.53;;;1.60;;
4963;SDS011;2497;47.410;9.740;2023-04-24T15:29:55;3.20;;;1.63;;
4963;SDS011;2497;47.410;9.740;2023-04-24T15:32:23;2.10;;;1.70;;
4963;SDS011;2497;47.410;9.740;2023-04-24T15:34:52;3.20;;;1.97;;
4963;SDS011;2497;47.410;9.740;2023-04-24T15:37:25;4.43;;;1.80;;
4963;SDS011;2497;47.410;9.740;2023-04-24T15:39:52;2.63;;;1.70;;
4963;SDS011;2497;47.410;9.740;2023-04-24T15:42:19;4.27;;;2.40;;
4963;SDS011;2497;47.410;9.740;2023-04-24T15:44:46;4.80;;;2.13;;
4963;SDS011;2497;47.410;9.740;2023-04-24T15:47:17;5.30;;;1.97;;
4963;SDS011;2497;47.410;9.740;2023-04-24T15:49:45;4.17;;;1.90;;
4963;SDS011;2497;47.410;9.740;2023-04-24T15:52:12;3.17;;;1.97;;
4963;SDS011;2497;47.410;9.740;2023-04-24T15:54:40;2.20;;;1.70;;
4963;SDS011;2497;47.410;9.740;2023-04-24T15:57:07;4.60;;;2.47;;
4963;SDS011;2497;47.410;9.740;2023-04-24T15:59:34;4.50;;;2.60;;
4963;SDS011;2497;47.410;9.740;2023-04-24T16:02:01;5.50;;;3.07;;
4963;SDS011;2497;47.410;9.740;2023-04-24T16:04:31;6.00;;;2.80;;
4963;SDS011;2497;47.410;9.740;2023-04-24T16:06:59;8.10;;;4.43;;
4963;SDS011;2497;47.410;9.740;2023-04-24T16:09:26;8.40;;;2.90;;
4963;SDS011;2497;47.410;9.740;2023-04-24T16:11:55;3.90;;;2.30;;
4963;SDS011;2497;47.410;9.740;2023-04-24T16:14:23;2.93;;;2.23;;
4963;SDS011;2497;47.410;9.740;2023-04-24T16:16:51;3.70;;;2.00;;
4963;SDS011;2497;47.410;9.740;2023-04-24T16:19:19;3.30;;;2.03;;
4963;SDS011;2497;47.410;9.740;2023-04-24T16:21:48;6.50;;;2.07;;
4963;SDS011;2497;47.410;9.740;2023-04-24T16:24:18;4.40;;;2.80;;
4963;SDS011;2497;47.410;9.740;2023-04-24T16:26:46;7.00;;;2.67;;
4963;SDS011;2497;47.410;9.740;2023-04-24T16:29:13;5.03;;;3.07;;
4963;SDS011;2497;47.410;9.740;2023-04-24T16:31:41;4.20;;;3.17;;
4963;SDS011;2497;47.410;9.740;2023-04-24T16:34:08;5.70;;;3.20;;
4963;SDS011;2497;47.410;9.740;2023-04-24T16:36:35;4.73;;;3.50;;
4963;SDS011;2497;47.410;9.740;2023-04-24T16:39:04;5.40;;;3.47;;
4963;SDS011;2497;47.410;9.740;2023-04-24T16:41:33;8.30;;;4.30;;
4963;SDS011;2497;47.410;9.740;2023-04-24T16:44:01;9.37;;;4.67;;
4963;SDS011;2497;47.410;9.740;2023-04-24T16:46:31;4.60;;;3.27;;
4963;SDS011;2497;47.410;9.740;2023-04-24T16:48:58;4.33;;;3.10;;